< < Back
Terminal Aerodrome Forecast


Current Version              Previous Versions:   1  2  3  4  5  6  7  8  9  

Terminal Aerodrome Forecast

349
FTUS44 KMOB 242341 CCA
TAFPNS
TAF COR
KPNS 242341Z 2500/2524 17007KT P6SM SCT050 OVC120
     FM250600 16011KT P6SM BKN010
     FM251200 18009KT P6SM VCTS BKN007CB
      TEMPO 2514/2518 4SM TSRA BKN005CB=



Latest METAR

834
SAUS70 KWBC 252200 RRF
MTRPNS
METAR KPNS 252153Z 34013G24KT 10SM FEW023 21/19 A2978 RMK AO2 PK WND
24053/2105 WSHFT 2110 LTG DSNT NE AND E RAE39 TSE28 SLP086
P0026 T02110189


USA.gov is the U.S. government's official web portal to all federal, state and local government web resources and services.